createdAt,value
2022-12-22T00:00:34.233Z,1002.25
2022-12-22T00:01:33.308Z,1002.21
2022-12-22T00:02:33.401Z,1002.21
2022-12-22T00:03:33.377Z,1002.25
2022-12-22T00:04:33.207Z,1002.23
2022-12-22T00:05:33.190Z,1002.20
2022-12-22T00:06:33.196Z,1002.25
2022-12-22T00:07:33.191Z,1002.24
2022-12-22T00:08:33.176Z,1002.18
2022-12-22T00:09:33.152Z,1002.23
2022-12-22T00:10:33.153Z,1002.16
2022-12-22T00:11:33.139Z,1002.09
2022-12-22T00:12:33.094Z,1002.10
2022-12-22T00:13:33.114Z,1002.11
2022-12-22T00:14:33.066Z,1002.16
2022-12-22T00:15:33.068Z,1002.15
2022-12-22T00:16:33.085Z,1002.17
2022-12-22T00:17:33.056Z,1002.08
2022-12-22T00:18:33.025Z,1002.13
2022-12-22T00:19:38.216Z,1002.09
2022-12-22T00:20:32.997Z,1002.08
2022-12-22T00:21:33.008Z,1002.06
2022-12-22T00:22:33.005Z,1002.02
2022-12-22T00:23:32.958Z,1002.01
2022-12-22T00:24:32.940Z,1002.02
2022-12-22T00:25:32.938Z,1002.03
2022-12-22T00:26:32.931Z,1002.02
2022-12-22T00:27:32.923Z,1001.99
2022-12-22T00:28:32.900Z,1001.98
2022-12-22T00:29:32.885Z,1001.94
2022-12-22T00:30:32.926Z,1001.94
2022-12-22T00:31:32.903Z,1001.95
2022-12-22T00:32:32.988Z,1001.85
2022-12-22T00:33:32.841Z,1001.90
2022-12-22T00:34:33.521Z,1001.87
2022-12-22T00:35:32.812Z,1001.91
2022-12-22T00:36:33.291Z,1001.94
2022-12-22T00:37:32.791Z,1001.94
2022-12-22T00:38:32.885Z,1001.88
2022-12-22T00:39:33.067Z,1001.88
2022-12-22T00:40:32.747Z,1001.86
2022-12-22T00:41:33.023Z,1001.90
2022-12-22T00:42:32.730Z,1001.93
2022-12-22T00:43:36.677Z,1001.94
2022-12-22T00:44:32.722Z,1001.91
2022-12-22T00:45:32.740Z,1001.91
2022-12-22T00:46:32.986Z,1001.88
2022-12-22T00:47:32.930Z,1001.93
2022-12-22T00:48:32.663Z,1001.87
2022-12-22T00:49:32.668Z,1001.83
2022-12-22T00:50:32.629Z,1001.82
2022-12-22T00:51:32.626Z,1001.81
2022-12-22T00:52:33.035Z,1001.85
2022-12-22T00:53:32.575Z,1001.76
2022-12-22T00:54:33.094Z,1001.76
2022-12-22T00:55:32.858Z,1001.80
2022-12-22T00:56:32.542Z,1001.73
2022-12-22T00:57:32.519Z,1001.71
2022-12-22T00:58:32.534Z,1001.74
2022-12-22T00:59:32.513Z,1001.68
2022-12-22T01:00:32.623Z,1001.70
2022-12-22T01:01:32.554Z,1001.75
2022-12-22T01:02:32.585Z,1001.63
2022-12-22T01:03:33.352Z,1001.70
2022-12-22T01:04:36.457Z,1001.70
2022-12-22T01:05:33.224Z,1001.68
2022-12-22T01:06:32.683Z,1001.65
2022-12-22T01:07:32.821Z,1001.67
2022-12-22T01:08:34.171Z,1001.67
2022-12-22T01:09:32.382Z,1001.71
2022-12-22T01:10:32.366Z,1001.66
2022-12-22T01:11:32.400Z,1001.56
2022-12-22T01:12:32.335Z,1001.63
2022-12-22T01:13:32.341Z,1001.58
2022-12-22T01:14:36.517Z,1001.53
2022-12-22T01:15:33.742Z,1001.54
2022-12-22T01:16:36.117Z,1001.47
2022-12-22T01:17:33.308Z,1001.50
2022-12-22T01:18:36.904Z,1001.51
2022-12-22T01:19:32.493Z,1001.46
2022-12-22T01:20:32.230Z,1001.49
2022-12-22T01:21:32.237Z,1001.39
2022-12-22T01:22:32.251Z,1001.42
2022-12-22T01:23:32.333Z,1001.38
2022-12-22T01:24:32.457Z,1001.36
2022-12-22T01:25:32.196Z,1001.43
2022-12-22T01:26:32.175Z,1001.36
2022-12-22T01:27:32.180Z,1001.34
2022-12-22T01:28:32.136Z,1001.35
2022-12-22T01:29:32.475Z,1001.38
2022-12-22T01:30:32.135Z,1001.37
2022-12-22T01:31:32.091Z,1001.37
2022-12-22T01:32:36.072Z,1001.36
2022-12-22T01:33:32.073Z,1001.32
2022-12-22T01:34:32.066Z,1001.37
2022-12-22T01:35:32.095Z,1001.32
2022-12-22T01:36:32.232Z,1001.35
2022-12-22T01:37:32.026Z,1001.30
2022-12-22T01:38:32.044Z,1001.30
2022-12-22T01:39:32.022Z,1001.28
2022-12-22T01:40:32.736Z,1001.32
2022-12-22T01:41:32.916Z,1001.25
2022-12-22T01:42:31.957Z,1001.26
2022-12-22T01:43:31.965Z,1001.25
2022-12-22T01:44:31.928Z,1001.29
2022-12-22T01:45:31.932Z,1001.32
2022-12-22T01:46:31.964Z,1001.22
2022-12-22T01:47:31.915Z,1001.21
2022-12-22T01:48:31.887Z,1001.26
2022-12-22T01:49:32.346Z,1001.19
2022-12-22T01:50:31.860Z,1001.22
2022-12-22T01:51:35.780Z,1001.21
2022-12-22T01:52:31.845Z,1001.20
2022-12-22T01:53:31.847Z,1001.26
2022-12-22T01:54:32.092Z,1001.18
2022-12-22T01:55:32.764Z,1001.21
2022-12-22T01:56:31.766Z,1001.14
2022-12-22T01:57:31.781Z,1001.16
2022-12-22T01:58:31.745Z,1001.12
2022-12-22T01:59:31.894Z,1001.07
2022-12-22T02:00:32.492Z,1001.11
2022-12-22T02:01:31.824Z,1001.17
2022-12-22T02:02:31.800Z,1001.05
2022-12-22T02:03:31.746Z,1001.08
2022-12-22T02:04:31.679Z,1001.06
2022-12-22T02:05:32.649Z,1001.13
2022-12-22T02:06:31.660Z,1000.99
2022-12-22T02:07:35.527Z,1001.01
2022-12-22T02:08:31.624Z,1000.98
2022-12-22T02:09:31.619Z,1000.93
2022-12-22T02:10:31.608Z,1001.01
2022-12-22T02:11:31.636Z,1000.97
2022-12-22T02:12:31.564Z,1000.97
2022-12-22T02:13:31.574Z,1000.92
2022-12-22T02:14:31.545Z,1000.87
2022-12-22T02:15:31.553Z,1000.84
2022-12-22T02:16:31.598Z,1000.82
2022-12-22T02:17:32.239Z,1000.79
2022-12-22T02:18:31.494Z,1000.75
2022-12-22T02:19:31.484Z,1000.77
2022-12-22T02:20:32.835Z,1000.77
2022-12-22T02:21:35.464Z,1000.70
2022-12-22T02:22:32.418Z,1000.63
2022-12-22T02:23:31.475Z,1000.67
2022-12-22T02:24:31.422Z,1000.59
2022-12-22T02:25:31.418Z,1000.57
2022-12-22T02:26:31.387Z,1000.57
2022-12-22T02:27:31.377Z,1000.58
2022-12-22T02:28:31.391Z,1000.57
2022-12-22T02:29:31.478Z,1000.55
2022-12-22T02:30:31.339Z,1000.59
2022-12-22T02:31:31.358Z,1000.54
2022-12-22T02:32:31.320Z,1000.47
2022-12-22T02:33:31.600Z,1000.44
2022-12-22T02:34:31.312Z,1000.45
2022-12-22T02:35:31.706Z,1000.43
2022-12-22T02:36:31.491Z,1000.40
2022-12-22T02:37:31.276Z,1000.35
2022-12-22T02:38:32.223Z,1000.38
2022-12-22T02:39:31.229Z,1000.38
2022-12-22T02:40:35.729Z,1000.27
2022-12-22T02:41:33.069Z,1000.37
2022-12-22T02:42:31.196Z,1000.32
2022-12-22T02:43:31.176Z,1000.27
2022-12-22T02:44:31.169Z,1000.31
2022-12-22T02:45:31.173Z,1000.29
2022-12-22T02:46:31.191Z,1000.23
2022-12-22T02:47:31.165Z,1000.21
2022-12-22T02:48:31.112Z,1000.27
2022-12-22T02:49:31.112Z,1000.18
2022-12-22T02:50:31.096Z,1000.13
2022-12-22T02:51:31.083Z,1000.18
2022-12-22T02:52:31.069Z,1000.16
2022-12-22T02:53:31.185Z,1000.14
2022-12-22T02:54:31.051Z,1000.13
2022-12-22T02:55:31.016Z,1000.11
2022-12-22T02:56:31.015Z,1000.14
2022-12-22T02:57:31.027Z,1000.14
2022-12-22T02:58:30.997Z,1000.13
2022-12-22T02:59:31.585Z,1000.18
2022-12-22T03:00:35.049Z,1000.16
2022-12-22T03:01:35.135Z,1000.06
2022-12-22T03:02:31.104Z,1000.11
2022-12-22T03:03:31.178Z,1000.13
2022-12-22T03:04:31.216Z,1000.09
2022-12-22T03:05:31.197Z,1000.12
2022-12-22T03:06:30.890Z,1000.07
2022-12-22T03:07:30.890Z,1000.06
2022-12-22T03:08:31.702Z,1000.11
2022-12-22T03:09:30.877Z,1000.09
2022-12-22T03:10:30.841Z,1000.03
2022-12-22T03:11:34.769Z,1000.03
2022-12-22T03:12:30.821Z,999.98
2022-12-22T03:13:30.796Z,999.94
2022-12-22T03:14:30.781Z,999.97
2022-12-22T03:15:30.802Z,999.96
2022-12-22T03:16:30.839Z,999.97
2022-12-22T03:17:30.852Z,999.97
2022-12-22T03:18:30.754Z,1000.01
2022-12-22T03:19:34.778Z,999.95
2022-12-22T03:20:34.929Z,999.94
2022-12-22T03:21:30.696Z,999.95
2022-12-22T03:22:30.684Z,999.91
2022-12-22T03:23:30.741Z,999.91
2022-12-22T03:24:30.691Z,999.96
2022-12-22T03:25:30.909Z,999.87
2022-12-22T03:26:30.924Z,999.89
2022-12-22T03:27:30.639Z,999.83
2022-12-22T03:28:34.408Z,999.89
2022-12-22T03:29:30.696Z,999.84
2022-12-22T03:30:31.388Z,999.82
2022-12-22T03:31:32.485Z,999.85
2022-12-22T03:32:30.548Z,999.82
2022-12-22T03:33:30.597Z,999.90
2022-12-22T03:34:30.527Z,999.88
2022-12-22T03:35:30.622Z,999.89
2022-12-22T03:36:30.796Z,999.89
2022-12-22T03:37:30.497Z,999.93
2022-12-22T03:38:30.480Z,999.85
2022-12-22T03:39:30.564Z,999.93
2022-12-22T03:40:30.718Z,999.79
2022-12-22T03:41:30.462Z,999.78
2022-12-22T03:42:30.440Z,999.84
2022-12-22T03:43:30.401Z,999.76
2022-12-22T03:44:30.410Z,999.76
2022-12-22T03:45:30.372Z,999.74
2022-12-22T03:46:30.765Z,999.76
2022-12-22T03:47:30.395Z,999.77
2022-12-22T03:48:30.356Z,999.73
2022-12-22T03:49:30.341Z,999.71
2022-12-22T03:50:30.323Z,999.78
2022-12-22T03:51:30.363Z,999.73
2022-12-22T03:52:30.293Z,999.73
2022-12-22T03:53:31.093Z,999.73
2022-12-22T03:54:30.277Z,999.73
2022-12-22T03:55:30.253Z,999.71
2022-12-22T03:56:30.513Z,999.68
2022-12-22T03:57:30.233Z,999.62
2022-12-22T03:58:30.237Z,999.62
2022-12-22T03:59:30.223Z,999.58
2022-12-22T04:00:30.202Z,999.66
2022-12-22T04:01:30.600Z,999.55
2022-12-22T04:02:30.220Z,999.61
2022-12-22T04:03:30.275Z,999.54
2022-12-22T04:04:30.163Z,999.56
2022-12-22T04:05:30.186Z,999.52
2022-12-22T04:06:30.285Z,999.56
2022-12-22T04:07:30.110Z,999.54
2022-12-22T04:08:30.391Z,999.53
2022-12-22T04:09:30.062Z,999.52
2022-12-22T04:10:30.357Z,999.57
2022-12-22T04:11:30.172Z,999.59
2022-12-22T04:12:30.042Z,999.53
2022-12-22T04:13:30.009Z,999.51
2022-12-22T04:14:34.311Z,999.54
2022-12-22T04:15:30.002Z,999.58
2022-12-22T04:16:30.050Z,999.52
2022-12-22T04:17:30.002Z,999.52
2022-12-22T04:18:30.152Z,999.47
2022-12-22T04:19:29.986Z,999.48
2022-12-22T04:20:30.203Z,999.44
2022-12-22T04:21:29.927Z,999.40
2022-12-22T04:22:29.921Z,999.36
2022-12-22T04:23:30.007Z,999.35
2022-12-22T04:24:30.155Z,999.30
2022-12-22T04:25:30.145Z,999.36
2022-12-22T04:26:29.871Z,999.33
2022-12-22T04:27:29.840Z,999.34
2022-12-22T04:28:29.887Z,999.30
2022-12-22T04:29:29.915Z,999.28
2022-12-22T04:30:29.821Z,999.23
2022-12-22T04:31:30.640Z,999.25
2022-12-22T04:32:29.790Z,999.26
2022-12-22T04:33:29.770Z,999.20
2022-12-22T04:34:29.761Z,999.21
2022-12-22T04:35:29.766Z,999.19
2022-12-22T04:36:29.726Z,999.13
2022-12-22T04:37:29.715Z,999.15
2022-12-22T04:38:29.701Z,999.23
2022-12-22T04:39:29.813Z,999.19
2022-12-22T04:40:29.682Z,999.21
2022-12-22T04:41:30.303Z,999.20
2022-12-22T04:42:29.663Z,999.27
2022-12-22T04:43:29.647Z,999.18
2022-12-22T04:44:29.643Z,999.21
2022-12-22T04:45:29.701Z,999.16
2022-12-22T04:46:29.690Z,999.11
2022-12-22T04:47:29.647Z,999.03
2022-12-22T04:48:29.575Z,999.09
2022-12-22T04:49:29.558Z,999.03
2022-12-22T04:50:30.051Z,999.03
2022-12-22T04:51:29.551Z,999.00
2022-12-22T04:52:29.521Z,999.01
2022-12-22T04:53:29.546Z,999.02
2022-12-22T04:54:29.499Z,999.00
2022-12-22T04:55:29.483Z,998.95
2022-12-22T04:56:29.473Z,998.93
2022-12-22T04:57:29.794Z,998.93
2022-12-22T04:58:29.985Z,998.87
2022-12-22T04:59:30.317Z,998.92
2022-12-22T05:00:29.425Z,998.88
2022-12-22T05:01:29.625Z,998.93
2022-12-22T05:02:29.448Z,998.89
2022-12-22T05:03:29.458Z,998.91
2022-12-22T05:04:29.376Z,998.92
2022-12-22T05:05:29.535Z,998.91
2022-12-22T05:06:29.345Z,998.95
2022-12-22T05:07:29.601Z,998.98
2022-12-22T05:08:29.325Z,998.97
2022-12-22T05:09:29.649Z,998.97
2022-12-22T05:10:29.663Z,998.94
2022-12-22T05:11:29.309Z,998.96
2022-12-22T05:12:29.515Z,998.89
2022-12-22T05:13:29.247Z,998.93
2022-12-22T05:14:29.806Z,998.95
2022-12-22T05:15:29.517Z,998.85
2022-12-22T05:16:29.275Z,998.84
2022-12-22T05:17:29.865Z,998.82
2022-12-22T05:18:30.149Z,998.81
2022-12-22T05:19:30.894Z,998.79
2022-12-22T05:20:29.194Z,998.83
2022-12-22T05:21:29.150Z,998.86
2022-12-22T05:22:29.142Z,998.77
2022-12-22T05:23:29.240Z,998.78
2022-12-22T05:24:29.115Z,998.83
2022-12-22T05:25:34.665Z,998.75
2022-12-22T05:26:30.083Z,998.77
2022-12-22T05:27:29.824Z,998.69
2022-12-22T05:28:29.064Z,998.69
2022-12-22T05:29:29.072Z,998.67
2022-12-22T05:30:29.069Z,998.71
2022-12-22T05:31:29.905Z,998.76
2022-12-22T05:32:29.060Z,998.73
2022-12-22T05:33:28.994Z,998.69
2022-12-22T05:34:28.995Z,998.69
2022-12-22T05:35:29.016Z,998.66
2022-12-22T05:36:28.968Z,998.68
2022-12-22T05:37:28.950Z,998.72
2022-12-22T05:38:29.767Z,998.73
2022-12-22T05:39:28.931Z,998.72
2022-12-22T05:40:28.911Z,998.71
2022-12-22T05:41:28.912Z,998.68
2022-12-22T05:42:29.581Z,998.70
2022-12-22T05:43:28.867Z,998.76
2022-12-22T05:44:29.027Z,998.71
2022-12-22T05:45:28.843Z,998.79
2022-12-22T05:46:28.921Z,998.77
2022-12-22T05:47:28.862Z,998.79
2022-12-22T05:48:35.377Z,998.84
2022-12-22T05:49:30.269Z,998.87
2022-12-22T05:50:29.463Z,998.85
2022-12-22T05:51:29.579Z,998.95
2022-12-22T05:52:28.777Z,998.92
2022-12-22T05:53:28.803Z,998.94
2022-12-22T05:54:28.752Z,998.87
2022-12-22T05:55:28.862Z,998.91
2022-12-22T05:56:29.381Z,998.86
2022-12-22T05:57:28.863Z,998.88
2022-12-22T05:58:29.457Z,998.97
2022-12-22T05:59:28.792Z,998.95
2022-12-22T06:00:28.657Z,998.92
2022-12-22T06:01:28.999Z,998.91
2022-12-22T06:02:29.579Z,998.86
2022-12-22T06:03:28.839Z,998.87
2022-12-22T06:04:29.051Z,998.90
2022-12-22T06:05:29.557Z,998.89
2022-12-22T06:06:28.882Z,998.95
2022-12-22T06:07:29.104Z,998.91
2022-12-22T06:08:29.140Z,998.89
2022-12-22T06:09:29.158Z,998.85
2022-12-22T06:10:29.174Z,998.81
2022-12-22T06:11:28.545Z,998.82
2022-12-22T06:12:29.235Z,998.73
2022-12-22T06:13:28.479Z,998.70
2022-12-22T06:14:28.929Z,998.72
2022-12-22T06:15:29.165Z,998.82
2022-12-22T06:16:28.514Z,998.74
2022-12-22T06:17:29.255Z,998.80
2022-12-22T06:18:28.749Z,998.82
2022-12-22T06:19:28.790Z,998.88
2022-12-22T06:20:29.017Z,998.89
2022-12-22T06:21:28.925Z,998.98
2022-12-22T06:22:28.370Z,998.95
2022-12-22T06:23:29.165Z,998.99
2022-12-22T06:24:28.742Z,998.95
2022-12-22T06:25:28.476Z,998.98
2022-12-22T06:26:28.481Z,998.96
2022-12-22T06:27:28.591Z,998.98
2022-12-22T06:28:28.920Z,999.05
2022-12-22T06:29:32.901Z,998.99
2022-12-22T06:30:33.303Z,998.96
2022-12-22T06:31:29.195Z,999.02
2022-12-22T06:32:28.251Z,999.00
2022-12-22T06:33:28.238Z,998.95
2022-12-22T06:34:28.237Z,998.91
2022-12-22T06:35:28.255Z,998.96
2022-12-22T06:36:28.241Z,998.96
2022-12-22T06:37:28.455Z,998.95
2022-12-22T06:38:28.386Z,998.97
2022-12-22T06:39:28.228Z,998.96
2022-12-22T06:40:29.590Z,998.99
2022-12-22T06:41:28.232Z,999.02
2022-12-22T06:42:28.218Z,998.89
2022-12-22T06:43:28.111Z,998.88
2022-12-22T06:44:28.243Z,998.87
2022-12-22T06:45:28.213Z,998.92
2022-12-22T06:46:28.173Z,998.88
2022-12-22T06:47:28.255Z,999.02
2022-12-22T06:48:28.114Z,999.07
2022-12-22T06:49:28.127Z,999.10
2022-12-22T06:50:28.125Z,999.10
2022-12-22T06:51:28.004Z,999.15
2022-12-22T06:52:28.111Z,999.08
2022-12-22T06:53:28.243Z,999.13
2022-12-22T06:54:28.234Z,999.14
2022-12-22T06:55:28.214Z,999.18
2022-12-22T06:56:28.242Z,999.23
2022-12-22T06:57:28.224Z,999.27
2022-12-22T06:58:28.225Z,999.22
2022-12-22T06:59:28.213Z,999.22
2022-12-22T07:00:28.250Z,999.24
2022-12-22T07:01:28.020Z,999.26
2022-12-22T07:02:28.427Z,999.20
2022-12-22T07:03:28.420Z,999.19
2022-12-22T07:04:28.162Z,999.26
2022-12-22T07:05:28.204Z,999.23
2022-12-22T07:06:27.860Z,999.28
2022-12-22T07:07:28.204Z,999.36
2022-12-22T07:08:27.787Z,999.32
2022-12-22T07:09:27.774Z,999.39
2022-12-22T07:10:28.140Z,999.41
2022-12-22T07:11:27.956Z,999.46
2022-12-22T07:12:28.207Z,999.38
2022-12-22T07:13:28.208Z,999.43
2022-12-22T07:14:28.029Z,999.42
2022-12-22T07:15:28.208Z,999.42
2022-12-22T07:16:27.801Z,999.53
2022-12-22T07:17:27.801Z,999.49
2022-12-22T07:18:32.149Z,999.49
2022-12-22T07:19:28.020Z,999.52
2022-12-22T07:20:28.140Z,999.58
2022-12-22T07:21:28.197Z,999.60
2022-12-22T07:22:30.663Z,999.55
2022-12-22T07:23:28.191Z,999.54
2022-12-22T07:24:28.227Z,999.53
2022-12-22T07:25:28.200Z,999.58
2022-12-22T07:26:28.190Z,999.58
2022-12-22T07:27:27.565Z,999.55
2022-12-22T07:28:27.864Z,999.51
2022-12-22T07:29:28.185Z,999.62
2022-12-22T07:30:28.533Z,999.61
2022-12-22T07:31:27.611Z,999.59
2022-12-22T07:32:27.751Z,999.57
2022-12-22T07:33:27.468Z,999.55
2022-12-22T07:34:28.195Z,999.54
2022-12-22T07:35:27.780Z,999.51
2022-12-22T07:36:28.186Z,999.60
2022-12-22T07:37:28.060Z,999.58
2022-12-22T07:38:28.186Z,999.56
2022-12-22T07:39:28.181Z,999.60
2022-12-22T07:40:27.439Z,999.66
2022-12-22T07:41:28.114Z,999.60
2022-12-22T07:42:27.369Z,999.57
2022-12-22T07:43:28.157Z,999.65
2022-12-22T07:44:27.787Z,999.60
2022-12-22T07:45:27.319Z,999.65
2022-12-22T07:46:27.391Z,999.63
2022-12-22T07:47:34.784Z,999.67
2022-12-22T07:48:28.663Z,999.63
2022-12-22T07:49:27.375Z,999.71
2022-12-22T07:50:27.390Z,999.71
2022-12-22T07:51:27.239Z,999.74
2022-12-22T07:52:27.337Z,999.74
2022-12-22T07:53:27.399Z,999.77
2022-12-22T07:54:27.359Z,999.81
2022-12-22T07:55:27.339Z,999.82
2022-12-22T07:56:27.515Z,999.81
2022-12-22T07:57:27.528Z,999.86
2022-12-22T07:58:27.210Z,999.79
2022-12-22T07:59:27.322Z,999.77
2022-12-22T08:00:27.394Z,999.82
2022-12-22T08:01:27.624Z,999.83
2022-12-22T08:02:29.095Z,999.87
2022-12-22T08:03:27.734Z,999.78
2022-12-22T08:04:28.061Z,999.81
2022-12-22T08:05:28.032Z,999.78
2022-12-22T08:06:27.291Z,999.77
2022-12-22T08:07:27.772Z,999.86
2022-12-22T08:08:27.037Z,999.81
2022-12-22T08:09:27.557Z,999.86
2022-12-22T08:10:28.431Z,999.91
2022-12-22T08:11:27.857Z,999.92
2022-12-22T08:12:27.457Z,999.93
2022-12-22T08:13:27.979Z,999.98
2022-12-22T08:14:27.146Z,999.98
2022-12-22T08:15:27.007Z,999.98
2022-12-22T08:16:27.653Z,999.97
2022-12-22T08:17:27.089Z,1000.00
2022-12-22T08:18:26.906Z,999.96
2022-12-22T08:19:26.975Z,999.94
2022-12-22T08:20:27.699Z,999.99
2022-12-22T08:21:27.701Z,999.96
2022-12-22T08:22:27.511Z,999.95
2022-12-22T08:23:27.771Z,999.96
2022-12-22T08:24:26.852Z,1000.01
2022-12-22T08:25:27.238Z,999.83
2022-12-22T08:26:27.051Z,999.86
2022-12-22T08:27:27.458Z,999.85
2022-12-22T08:28:26.922Z,999.89
2022-12-22T08:29:27.023Z,999.83
2022-12-22T08:30:26.753Z,999.85
2022-12-22T08:31:27.257Z,999.87
2022-12-22T08:32:27.142Z,999.88
2022-12-22T08:33:27.057Z,999.95
2022-12-22T08:34:27.508Z,999.92
2022-12-22T08:35:27.320Z,999.93
2022-12-22T08:36:26.700Z,999.93
2022-12-22T08:37:27.254Z,999.86
2022-12-22T08:38:27.436Z,999.86
2022-12-22T08:39:27.110Z,999.90
2022-12-22T08:40:27.459Z,999.92
2022-12-22T08:41:27.308Z,999.92
2022-12-22T08:42:26.720Z,999.92
2022-12-22T08:43:27.384Z,1000.00
2022-12-22T08:44:27.362Z,999.99
2022-12-22T08:45:26.661Z,1000.05
2022-12-22T08:46:27.920Z,1000.14
2022-12-22T08:47:27.421Z,1000.09
2022-12-22T08:48:26.510Z,1000.09
2022-12-22T08:49:27.485Z,1000.11
2022-12-22T08:50:26.534Z,1000.10
2022-12-22T08:51:26.491Z,1000.12
2022-12-22T08:52:26.590Z,1000.13
2022-12-22T08:54:03.181Z,1000.13
2022-12-22T08:54:27.485Z,1000.22
2022-12-22T08:55:27.167Z,1000.20
2022-12-22T08:56:26.635Z,1000.14
2022-12-22T08:57:26.660Z,1000.13
2022-12-22T08:58:26.670Z,1000.13
2022-12-22T08:59:27.213Z,1000.15
2022-12-22T09:00:26.465Z,1000.24
2022-12-22T09:01:26.747Z,1000.25
2022-12-22T09:02:26.952Z,1000.22
2022-12-22T09:03:26.609Z,1000.28
2022-12-22T09:04:27.111Z,1000.26
2022-12-22T09:05:26.836Z,1000.32
2022-12-22T09:06:28.029Z,1000.36
2022-12-22T09:07:26.928Z,1000.42
2022-12-22T09:08:26.307Z,1000.43
2022-12-22T09:09:26.901Z,1000.49
2022-12-22T09:10:27.215Z,1000.45
2022-12-22T09:11:26.930Z,1000.50
2022-12-22T09:12:26.687Z,1000.56
2022-12-22T09:13:26.637Z,1000.60
2022-12-22T09:14:26.728Z,1000.68
2022-12-22T09:15:26.995Z,1000.63
2022-12-22T09:16:26.415Z,1000.67
2022-12-22T09:17:26.353Z,1000.60
2022-12-22T09:18:26.149Z,1000.66
2022-12-22T09:19:26.130Z,1000.69
2022-12-22T09:20:27.379Z,1000.66
2022-12-22T09:21:26.112Z,1000.68
2022-12-22T09:22:28.428Z,1000.73
2022-12-22T09:23:26.140Z,1000.74
2022-12-22T09:24:26.543Z,1000.79
2022-12-22T09:25:26.099Z,1000.79
2022-12-22T09:26:26.071Z,1000.73
2022-12-22T09:27:26.145Z,1000.75
2022-12-22T09:28:26.960Z,1000.74
2022-12-22T09:29:26.095Z,1000.74
2022-12-22T09:30:26.941Z,1000.74
2022-12-22T09:31:26.154Z,1000.76
2022-12-22T09:32:26.094Z,1000.72
2022-12-22T09:33:26.091Z,1000.71
2022-12-22T09:34:26.096Z,1000.71
2022-12-22T09:35:26.595Z,1000.73
2022-12-22T09:36:26.742Z,1000.81
2022-12-22T09:37:26.874Z,1000.85
2022-12-22T09:38:26.085Z,1000.83
2022-12-22T09:39:28.991Z,1000.81
2022-12-22T09:40:26.807Z,1000.87
2022-12-22T09:41:26.813Z,1000.83
2022-12-22T09:42:25.934Z,1000.84
2022-12-22T09:43:26.036Z,1000.74
2022-12-22T09:44:26.081Z,1000.76
2022-12-22T09:45:26.076Z,1000.74
2022-12-22T09:46:26.135Z,1000.79
2022-12-22T09:47:26.112Z,1000.91
2022-12-22T09:48:26.060Z,1000.87
2022-12-22T09:49:26.134Z,1000.91
2022-12-22T09:50:25.758Z,1000.85
2022-12-22T09:51:27.401Z,1000.90
2022-12-22T09:52:25.782Z,1000.90
2022-12-22T09:53:25.811Z,1000.97
2022-12-22T09:54:25.720Z,1000.99
2022-12-22T09:55:25.808Z,1000.91
2022-12-22T09:56:25.847Z,1000.90
2022-12-22T09:57:26.469Z,1000.94
2022-12-22T09:58:26.735Z,1000.91
2022-12-22T09:59:25.671Z,1000.95
2022-12-22T10:00:26.835Z,1000.89
2022-12-22T10:01:26.109Z,1000.86
2022-12-22T10:02:25.972Z,1000.94
2022-12-22T10:03:26.037Z,1000.95
2022-12-22T10:04:26.396Z,1000.99
2022-12-22T10:05:25.984Z,1000.95
2022-12-22T10:06:26.011Z,1000.96
2022-12-22T10:07:26.517Z,1000.94
2022-12-22T10:08:25.882Z,1001.00
2022-12-22T10:10:26.984Z,1001.00
2022-12-22T10:11:25.496Z,1001.02
2022-12-22T10:12:26.815Z,1001.00
2022-12-22T10:13:25.585Z,1001.03
2022-12-22T10:14:25.625Z,1001.09
2022-12-22T10:15:25.526Z,1001.07
2022-12-22T10:16:25.785Z,1001.10
2022-12-22T10:17:25.718Z,1001.11
2022-12-22T10:18:25.796Z,1001.17
2022-12-22T10:19:25.439Z,1001.15
2022-12-22T10:20:25.526Z,1001.10
2022-12-22T10:21:25.358Z,1001.10
2022-12-22T10:22:25.399Z,1001.12
2022-12-22T10:23:25.871Z,1001.16
2022-12-22T10:24:25.737Z,1001.18
2022-12-22T10:25:25.342Z,1001.20
2022-12-22T10:26:29.276Z,1001.24
2022-12-22T10:27:28.895Z,1001.24
2022-12-22T10:28:25.491Z,1001.30
2022-12-22T10:29:25.465Z,1001.24
2022-12-22T10:30:25.364Z,1001.23
2022-12-22T10:31:25.561Z,1001.29
2022-12-22T10:32:25.254Z,1001.25
2022-12-22T10:33:25.300Z,1001.25
2022-12-22T10:34:25.674Z,1001.33
2022-12-22T10:35:25.891Z,1001.33
2022-12-22T10:36:25.147Z,1001.32
2022-12-22T10:37:25.180Z,1001.34
2022-12-22T10:38:25.683Z,1001.32
2022-12-22T10:39:25.224Z,1001.39
2022-12-22T10:40:25.617Z,1001.38
2022-12-22T10:41:25.914Z,1001.43
2022-12-22T10:42:25.576Z,1001.36
2022-12-22T10:43:25.502Z,1001.34
2022-12-22T10:44:25.514Z,1001.40
2022-12-22T10:45:25.238Z,1001.37
2022-12-22T10:46:25.253Z,1001.41
2022-12-22T10:47:25.481Z,1001.39
2022-12-22T10:48:25.686Z,1001.46
2022-12-22T10:49:25.132Z,1001.49
2022-12-22T10:50:25.558Z,1001.52
2022-12-22T10:51:25.447Z,1001.55
2022-12-22T10:52:30.549Z,1001.54
2022-12-22T10:53:26.029Z,1001.50
2022-12-22T10:54:24.957Z,1001.45
2022-12-22T10:55:26.737Z,1001.51
2022-12-22T10:56:24.986Z,1001.44
2022-12-22T10:57:25.019Z,1001.54
2022-12-22T10:58:25.028Z,1001.45
2022-12-22T10:59:25.087Z,1001.51
2022-12-22T11:00:24.862Z,1001.51
2022-12-22T11:01:25.192Z,1001.49
2022-12-22T11:02:25.147Z,1001.51
2022-12-22T11:03:25.362Z,1001.47
2022-12-22T11:04:25.253Z,1001.44
2022-12-22T11:05:26.533Z,1001.46
2022-12-22T11:06:25.263Z,1001.47
2022-12-22T11:07:24.773Z,1001.52
2022-12-22T11:08:24.831Z,1001.57
2022-12-22T11:09:33.590Z,1001.58
2022-12-22T11:10:26.037Z,1001.57
2022-12-22T11:11:24.737Z,1001.62
2022-12-22T11:12:24.851Z,1001.54
2022-12-22T11:13:25.328Z,1001.66
2022-12-22T11:14:25.433Z,1001.62
2022-12-22T11:15:25.194Z,1001.66
2022-12-22T11:16:25.039Z,1001.69
2022-12-22T11:17:24.898Z,1001.63
2022-12-22T11:18:24.806Z,1001.72
2022-12-22T11:19:25.435Z,1001.77
2022-12-22T11:20:24.902Z,1001.83
2022-12-22T11:21:24.853Z,1001.81
2022-12-22T11:22:24.765Z,1001.83
2022-12-22T11:23:25.509Z,1001.76
2022-12-22T11:24:24.554Z,1001.83
2022-12-22T11:25:24.658Z,1001.75
2022-12-22T11:26:24.893Z,1001.71
2022-12-22T11:27:24.939Z,1001.77
2022-12-22T11:28:24.519Z,1001.69
2022-12-22T11:29:25.303Z,1001.73
2022-12-22T11:30:25.298Z,1001.67
2022-12-22T11:31:24.745Z,1001.76
2022-12-22T11:32:28.916Z,1001.82
2022-12-22T11:33:24.974Z,1001.78
2022-12-22T11:34:24.952Z,1001.89
2022-12-22T11:35:24.432Z,1001.87
2022-12-22T11:36:25.225Z,1001.90
2022-12-22T11:37:25.025Z,1001.94
2022-12-22T11:38:24.856Z,1001.95
2022-12-22T11:39:24.392Z,1001.99
2022-12-22T11:40:25.317Z,1002.06
2022-12-22T11:41:25.149Z,1002.09
2022-12-22T11:42:24.887Z,1002.13
2022-12-22T11:43:24.572Z,1002.11
2022-12-22T11:44:24.773Z,1002.17
2022-12-22T11:45:24.990Z,1002.19
2022-12-22T11:46:25.297Z,1002.17
2022-12-22T11:47:24.863Z,1002.13
2022-12-22T11:48:24.997Z,1002.18
2022-12-22T11:49:24.927Z,1002.20
2022-12-22T11:51:00.992Z,1002.22
2022-12-22T11:51:27.768Z,1002.21
2022-12-22T11:52:24.839Z,1002.25
2022-12-22T11:53:24.190Z,1002.21
2022-12-22T11:54:24.190Z,1002.20
2022-12-22T11:55:24.200Z,1002.14
2022-12-22T11:56:24.140Z,1002.16
2022-12-22T11:57:24.222Z,1002.18
2022-12-22T11:58:24.254Z,1002.21
2022-12-22T11:59:24.272Z,1002.24
2022-12-22T12:00:32.682Z,1002.28
2022-12-22T12:01:26.443Z,1002.32
2022-12-22T12:02:24.373Z,1002.27
2022-12-22T12:03:24.401Z,1002.28
2022-12-22T12:04:24.191Z,1002.35
2022-12-22T12:05:24.262Z,1002.38
2022-12-22T12:06:24.024Z,1002.47
2022-12-22T12:07:26.189Z,1002.41
2022-12-22T12:08:24.006Z,1002.33
2022-12-22T12:09:24.150Z,1002.25
2022-12-22T12:10:24.057Z,1002.31
2022-12-22T12:11:24.056Z,1002.30
2022-12-22T12:12:24.465Z,1002.34
2022-12-22T12:13:30.124Z,1002.32
2022-12-22T12:14:25.207Z,1002.37
2022-12-22T12:15:23.978Z,1002.33
2022-12-22T12:16:24.077Z,1002.25